Time;durP1;ratioP1;P1;durP2;ratioP2;P2;SDS_P1;SDS_P2;PMS_P1;PMS_P2;Temp;Humidity;BMP_temperature;BMP_pressure;BME280_temperature;BME280_humidity;BME280_pressure;Samples;Min_cycle;Max_cycle;Signal;HPM_P1;HPM_P2
2022/11/18 00:01:11;;;;;;;212.25;110.93;;;9.10;99.90;;;;;;5116922;28;20454;-65
2022/11/18 00:03:38;;;;;;;205.98;105.82;;;9.20;99.90;;;;;;5116951;28;20064;-65
2022/11/18 00:06:06;;;;;;;171.63;92.40;;;9.20;99.90;;;;;;5116993;28;20514;-65
2022/11/18 00:08:32;;;;;;;163.68;88.75;;;9.20;99.90;;;;;;5116820;28;20023;-65
2022/11/18 00:10:57;;;;;;;177.50;98.78;;;9.30;99.90;;;;;;5116754;28;20419;-66
2022/11/18 00:16:10;;;;;;;167.25;92.00;;;9.30;99.90;;;;;;5116854;28;20058;-65
2022/11/18 00:18:37;;;;;;;192.70;96.40;;;9.30;99.90;;;;;;5116604;28;20029;-66
2022/11/18 00:21:10;;;;;;;172.45;92.35;;;9.30;99.90;;;;;;5116570;28;20505;-65
2022/11/18 00:23:37;;;;;;;173.27;93.68;;;9.30;99.90;;;;;;5116612;28;20054;-66
2022/11/18 00:26:12;;;;;;;176.35;96.55;;;9.20;99.90;;;;;;5116578;28;20020;-65
2022/11/18 00:28:39;;;;;;;182.43;96.03;;;9.10;99.90;;;;;;5116764;28;20058;-65
2022/11/18 00:31:10;;;;;;;179.27;95.20;;;9.10;99.90;;;;;;5116506;28;20070;-65
2022/11/18 00:33:36;;;;;;;;;;;9.10;99.90;;;;;;5116818;28;20218;-65
2022/11/18 00:36:04;;;;;;;171.45;89.65;;;9.20;99.90;;;;;;5116432;28;19914;-65
2022/11/18 00:38:30;;;;;;;165.32;91.68;;;9.20;99.90;;;;;;5116056;28;20027;-65
2022/11/18 00:41:07;;;;;;;165.23;93.45;;;9.20;99.90;;;;;;5116332;28;20071;-65
2022/11/18 00:43:33;;;;;;;160.48;88.20;;;9.30;99.90;;;;;;5116177;28;20028;-65
2022/11/18 00:46:00;;;;;;;141.73;78.30;;;9.30;99.90;;;;;;5116059;28;20024;-65
2022/11/18 00:48:26;;;;;;;159.77;88.47;;;9.30;99.90;;;;;;5116302;28;20030;-66
2022/11/18 00:50:55;;;;;;;158.52;84.93;;;9.30;99.90;;;;;;5115962;28;20025;-65
2022/11/18 00:53:23;;;;;;;138.18;73.70;;;9.30;99.90;;;;;;5097729;28;20030;-65
2022/11/18 00:55:50;;;;;;;136.35;75.18;;;9.30;99.90;;;;;;5115949;28;20051;-65
2022/11/18 00:58:16;;;;;;;130.05;73.97;;;9.30;99.90;;;;;;5115949;28;20035;-65
2022/11/18 01:00:43;;;;;;;126.63;71.30;;;9.40;99.90;;;;;;5115580;28;20503;-65
2022/11/18 01:03:11;;;;;;;122.95;71.65;;;9.40;99.90;;;;;;5115873;28;20028;-65
2022/11/18 01:05:38;;;;;;;132.25;78.10;;;9.40;99.90;;;;;;5115649;28;20531;-65
2022/11/18 01:08:06;;;;;;;143.63;77.28;;;9.30;99.90;;;;;;5115787;28;20027;-65
2022/11/18 01:10:33;;;;;;;138.20;77.63;;;9.20;99.90;;;;;;5115617;28;20118;-65
2022/11/18 01:15:54;;;;;;;138.65;72.93;;;9.20;99.90;;;;;;5115711;28;20081;-66
2022/11/18 01:18:24;;;;;;;126.30;69.50;;;9.20;99.90;;;;;;5115702;28;20031;-66
2022/11/18 01:20:50;;;;;;;133.38;74.05;;;9.30;99.90;;;;;;5115526;28;20446;-65
2022/11/18 01:23:17;;;;;;;131.98;73.68;;;9.30;99.90;;;;;;5115569;28;20027;-65
2022/11/18 01:25:45;;;;;;;129.23;73.13;;;9.40;99.90;;;;;;5115468;28;20016;-65
2022/11/18 01:28:12;;;;;;;132.75;75.00;;;9.30;99.90;;;;;;5115421;28;20051;-65
2022/11/18 01:30:39;;;;;;;132.60;74.85;;;9.40;99.90;;;;;;5115354;28;20036;-65
2022/11/18 01:33:06;;;;;;;125.22;72.00;;;9.30;99.90;;;;;;5115297;28;20038;-65
2022/11/18 01:35:36;;;;;;;118.47;69.63;;;9.20;99.90;;;;;;5115313;28;20395;-65
2022/11/18 01:38:03;;;;;;;114.03;63.97;;;9.20;99.90;;;;;;5096407;28;20134;-65
2022/11/18 01:40:30;;;;;;;119.60;67.97;;;9.30;99.90;;;;;;5115231;28;20028;-65
2022/11/18 01:42:56;;;;;;;120.68;67.72;;;9.30;99.90;;;;;;5115296;28;20034;-65
2022/11/18 01:45:38;;;;;;;141.65;72.78;;;9.30;99.90;;;;;;5115146;28;20020;-65
2022/11/18 01:48:12;;;;;;;140.68;75.32;;;9.20;99.90;;;;;;5115122;28;20031;-65
2022/11/18 01:50:49;;;;;;;133.65;74.65;;;9.20;99.90;;;;;;5115011;28;20031;-65
2022/11/18 01:53:26;;;;;;;141.93;75.57;;;9.30;99.90;;;;;;5115177;28;20030;-65
2022/11/18 01:55:55;;;;;;;134.02;74.75;;;9.30;99.90;;;;;;5115130;28;20076;-65
2022/11/18 01:58:26;;;;;;;142.20;74.68;;;9.40;99.90;;;;;;5115005;28;20057;-65
2022/11/18 02:00:52;;;;;;;156.43;80.82;;;9.40;99.90;;;;;;5114949;28;20035;-65
2022/11/18 02:03:20;;;;;;;137.13;71.47;;;9.30;99.90;;;;;;5114977;28;20072;-65
2022/11/18 02:05:50;;;;;;;137.57;75.20;;;9.40;99.90;;;;;;5114866;28;20027;-65
2022/11/18 02:08:18;;;;;;;154.85;77.38;;;9.40;99.90;;;;;;5115187;28;20418;-65
2022/11/18 02:10:44;;;;;;;171.18;82.30;;;9.40;99.90;;;;;;5114917;28;20039;-65
2022/11/18 02:13:11;;;;;;;161.00;78.35;;;9.50;99.90;;;;;;5114931;28;20137;-65
2022/11/18 02:16:19;;;;;;;170.40;82.38;;;9.50;99.90;;;;;;5114722;28;20405;-65
2022/11/18 02:18:58;;;;;;;161.85;81.70;;;9.40;99.90;;;;;;5114286;28;20062;-65
2022/11/18 02:21:39;;;;;;;155.23;79.28;;;9.40;99.90;;;;;;5114780;28;20030;-65
2022/11/18 02:24:04;;;;;;;;;;;9.30;99.90;;;;;;5115302;28;20053;-65
2022/11/18 02:26:46;;;;;;;202.30;95.60;;;9.30;99.90;;;;;;5096419;28;20821;-65
2022/11/18 02:29:23;;;;;;;188.82;94.93;;;9.40;99.90;;;;;;5114789;28;20480;-65
2022/11/18 02:31:58;;;;;;;185.65;95.60;;;9.50;99.90;;;;;;5114720;28;20039;-65
2022/11/18 02:34:49;;;;;;;183.32;91.28;;;9.40;99.90;;;;;;5114564;28;20035;-65
2022/11/18 02:37:24;;;;;;;168.68;89.00;;;9.50;99.90;;;;;;5105151;28;20101;-65
2022/11/18 02:40:18;;;;;;;151.85;82.07;;;9.40;99.90;;;;;;5114466;28;20051;-65
2022/11/18 02:42:58;;;;;;;154.65;83.55;;;9.30;99.90;;;;;;5114563;28;20080;-65
2022/11/18 02:45:27;;;;;;;162.43;83.80;;;9.30;99.90;;;;;;5114562;28;20023;-65
2022/11/18 02:47:54;;;;;;;167.65;88.50;;;9.20;99.90;;;;;;5114386;28;20019;-65
2022/11/18 02:50:24;;;;;;;162.15;88.20;;;9.10;99.90;;;;;;5116265;28;20397;-65
2022/11/18 02:52:57;;;;;;;163.50;86.53;;;9.10;99.90;;;;;;5118396;28;20220;-65
2022/11/18 02:55:26;;;;;;;156.43;84.40;;;9.00;99.90;;;;;;5118383;28;20034;-65
2022/11/18 02:57:53;;;;;;;146.90;80.22;;;8.90;99.90;;;;;;5118269;28;20111;-65
2022/11/18 03:00:19;;;;;;;136.70;77.40;;;9.00;99.90;;;;;;5118013;28;20401;-65
2022/11/18 03:02:47;;;;;;;143.65;77.28;;;9.00;99.90;;;;;;5118202;28;20114;-65
2022/11/18 03:05:35;;;;;;;147.60;77.75;;;9.00;99.90;;;;;;5099977;28;20016;-65
2022/11/18 03:08:11;;;;;;;132.90;72.85;;;9.00;99.90;;;;;;5118102;28;20023;-65
2022/11/18 03:10:50;;;;;;;152.95;79.78;;;9.00;99.90;;;;;;5117909;28;20034;-65
2022/11/18 03:13:26;;;;;;;146.10;75.65;;;8.90;99.90;;;;;;5117932;28;20477;-65
2022/11/18 03:16:08;;;;;;;141.85;77.88;;;8.90;99.90;;;;;;5117853;28;20027;-65
2022/11/18 03:18:52;;;;;;;149.50;79.65;;;8.80;99.90;;;;;;5117963;28;20038;-65
2022/11/18 03:21:39;;;;;;;110.55;61.50;;;8.70;99.90;;;;;;5117840;28;20069;-65
2022/11/18 03:24:22;;;;;;;129.88;69.07;;;8.70;99.90;;;;;;5117814;28;20027;-65
2022/11/18 03:26:57;;;;;;;139.55;70.15;;;8.50;99.90;;;;;;5117819;28;20030;-65
2022/11/18 03:29:32;;;;;;;151.40;79.57;;;8.40;99.90;;;;;;5117616;28;20035;-65
2022/11/18 03:32:04;;;;;;;150.05;78.82;;;8.40;99.90;;;;;;5117737;28;20069;-65
2022/11/18 03:34:50;;;;;;;143.80;75.72;;;8.40;99.90;;;;;;5117483;28;20451;-65
2022/11/18 03:37:19;;;;;;;155.05;82.05;;;8.60;99.90;;;;;;5117483;28;20469;-65
2022/11/18 03:39:51;;;;;;;162.30;84.28;;;8.60;99.90;;;;;;5117260;28;20027;-65
2022/11/18 03:42:26;;;;;;;172.07;88.28;;;8.50;99.90;;;;;;5117461;28;20047;-65
2022/11/18 03:44:59;;;;;;;152.20;82.43;;;8.50;99.90;;;;;;5117252;28;20047;-65
2022/11/18 03:47:33;;;;;;;160.60;83.18;;;8.30;99.90;;;;;;5133256;27;20089;-65
2022/11/18 03:50:24;;;;;;;153.88;82.32;;;8.30;99.90;;;;;;5117198;28;20318;-65
2022/11/18 03:52:51;;;;;;;173.07;85.88;;;8.20;99.90;;;;;;5116834;28;20579;-65
2022/11/18 03:55:23;;;;;;;153.38;77.95;;;8.20;99.90;;;;;;5098919;28;20035;-65
2022/11/18 03:58:08;;;;;;;151.63;79.30;;;8.20;99.90;;;;;;5117117;28;20032;-65
2022/11/18 04:00:41;;;;;;;150.75;78.22;;;8.10;99.90;;;;;;5116212;28;20078;-65
2022/11/18 04:03:09;;;;;;;137.77;73.95;;;8.00;99.90;;;;;;5116931;28;20493;-65
2022/11/18 04:05:39;;;;;;;136.73;71.90;;;8.10;99.90;;;;;;5117004;28;20030;-65
2022/11/18 04:08:12;;;;;;;156.88;81.47;;;8.20;99.90;;;;;;5117234;28;20138;-65
2022/11/18 04:10:49;;;;;;;144.55;76.10;;;8.10;99.90;;;;;;5116868;28;20059;-65
2022/11/18 04:13:35;;;;;;;139.40;71.93;;;8.10;99.90;;;;;;5116828;28;20031;-65
2022/11/18 04:16:02;;;;;;;123.03;67.63;;;8.10;99.90;;;;;;5116826;28;20031;-65
2022/11/18 04:18:28;;;;;;;128.68;70.75;;;8.10;99.90;;;;;;5116626;28;20027;-65
2022/11/18 04:20:54;;;;;;;127.63;68.05;;;8.10;99.90;;;;;;5116731;28;20036;-65
2022/11/18 04:23:19;;;;;;;118.70;62.83;;;8.10;99.90;;;;;;5116599;28;20032;-65
2022/11/18 04:25:45;;;;;;;122.72;65.68;;;8.20;99.90;;;;;;5116615;28;20024;-65
2022/11/18 04:28:11;;;;;;;133.80;69.30;;;8.40;99.90;;;;;;5098269;28;20472;-65
2022/11/18 04:30:37;;;;;;;120.70;66.32;;;8.50;99.90;;;;;;5116608;28;20032;-65
2022/11/18 04:33:04;;;;;;;111.40;61.42;;;8.40;99.90;;;;;;5116322;28;20100;-65
2022/11/18 04:35:29;;;;;;;103.32;58.53;;;8.30;99.90;;;;;;5098268;28;20032;-65
2022/11/18 04:37:55;;;;;;;117.03;64.95;;;8.30;99.90;;;;;;5116247;28;20041;-65
2022/11/18 04:40:21;;;;;;;100.43;56.80;;;8.20;99.90;;;;;;5098097;28;20041;-65
2022/11/18 04:42:47;;;;;;;116.40;60.72;;;8.30;99.90;;;;;;5116282;28;20024;-65
2022/11/18 04:45:13;;;;;;;91.18;50.83;;;8.30;99.90;;;;;;5116122;28;20019;-65
2022/11/18 04:47:39;;;;;;;87.30;51.28;;;8.40;99.90;;;;;;5097827;28;20028;-65
2022/11/18 04:50:05;;;;;;;94.78;55.08;;;8.40;99.90;;;;;;5115991;28;20031;-65
2022/11/18 04:52:31;;;;;;;86.40;50.53;;;8.40;99.90;;;;;;5116002;28;20366;-65
2022/11/18 04:54:57;;;;;;;86.53;50.97;;;8.40;99.90;;;;;;5115900;28;20042;-65
2022/11/18 04:57:23;;;;;;;95.97;54.70;;;8.40;99.90;;;;;;5116042;28;20039;-65
2022/11/18 04:59:49;;;;;;;87.50;49.10;;;8.30;99.90;;;;;;5115929;28;20040;-65
2022/11/18 05:02:14;;;;;;;160.35;79.85;;;8.30;99.90;;;;;;5116126;28;20031;-65
2022/11/18 05:04:41;;;;;;;117.05;63.05;;;8.50;99.90;;;;;;5115819;28;20032;-65
2022/11/18 05:07:07;;;;;;;108.85;59.70;;;8.50;99.90;;;;;;5115803;28;20027;-65
2022/11/18 05:09:33;;;;;;;147.00;76.38;;;8.40;99.90;;;;;;5115494;28;20020;-65
2022/11/18 05:14:44;;;;;;;137.45;72.88;;;8.60;99.90;;;;;;5115517;28;20473;-65
2022/11/18 05:17:11;;;;;;;143.38;71.50;;;8.70;99.90;;;;;;5115622;28;20032;-65
2022/11/18 05:19:38;;;;;;;129.45;66.88;;;8.80;99.90;;;;;;5115452;28;20020;-65
2022/11/18 05:22:04;;;;;;;104.82;59.53;;;8.70;99.90;;;;;;5115474;28;20023;-65
2022/11/18 05:24:30;;;;;;;118.43;66.15;;;8.70;99.90;;;;;;5115395;28;20035;-65
2022/11/18 05:26:56;;;;;;;121.47;67.90;;;8.60;99.90;;;;;;5115313;28;20069;-65
2022/11/18 05:29:23;;;;;;;113.90;63.15;;;8.50;99.90;;;;;;5115317;28;20525;-65
2022/11/18 05:31:49;;;;;;;117.43;67.10;;;8.70;99.90;;;;;;5115329;28;20520;-65
2022/11/18 05:34:16;;;;;;;117.65;66.63;;;8.80;99.90;;;;;;5115003;28;20065;-65
2022/11/18 05:36:42;;;;;;;125.15;70.50;;;8.60;99.90;;;;;;5115258;28;20023;-65
2022/11/18 05:39:08;;;;;;;112.38;63.92;;;8.60;99.90;;;;;;5115078;28;20389;-65
2022/11/18 05:44:19;;;;;;;128.77;68.13;;;8.60;99.90;;;;;;5115092;28;20024;-65
2022/11/18 05:46:45;;;;;;;118.53;65.63;;;8.70;99.90;;;;;;5076618;28;20035;-65
2022/11/18 05:49:11;;;;;;;107.78;59.83;;;8.60;99.90;;;;;;5094537;28;20028;-65
2022/11/18 05:51:36;;;;;;;142.90;74.53;;;8.70;99.90;;;;;;5094667;28;20024;-65
2022/11/18 05:54:06;;;;;;;147.00;73.90;;;8.80;99.90;;;;;;5094522;28;20046;-65
2022/11/18 05:56:36;;;;;;;149.75;79.38;;;8.70;99.90;;;;;;5094730;28;20450;-65
2022/11/18 05:59:03;;;;;;;129.70;71.05;;;8.80;99.90;;;;;;5094301;28;20042;-65
2022/11/18 06:01:31;;;;;;;133.70;72.75;;;8.90;99.90;;;;;;5094488;28;20024;-65
2022/11/18 06:03:58;;;;;;;135.88;74.65;;;8.90;99.90;;;;;;5094616;28;20115;-65
2022/11/18 06:06:24;;;;;;;137.15;76.18;;;8.90;99.90;;;;;;5094479;28;20031;-65
2022/11/18 06:09:03;;;;;;;152.75;80.13;;;8.90;99.90;;;;;;5095845;28;20462;-65
2022/11/18 06:11:32;;;;;;;156.65;89.38;;;8.90;99.90;;;;;;5114938;28;20027;-65
2022/11/18 06:14:21;;;;;;;138.52;79.13;;;8.90;99.90;;;;;;5114649;28;20054;-65
2022/11/18 06:16:52;;;;;;;126.47;71.68;;;8.70;99.90;;;;;;5114750;28;20388;-65
2022/11/18 06:19:18;;;;;;;190.70;94.57;;;8.80;99.90;;;;;;5114514;28;20492;-65
2022/11/18 06:21:44;;;;;;;139.20;76.75;;;8.80;99.90;;;;;;5114596;28;20027;-65
2022/11/18 06:24:12;;;;;;;153.10;80.50;;;8.90;99.90;;;;;;5115010;28;20028;-65
2022/11/18 06:26:39;;;;;;;152.00;83.80;;;8.90;99.90;;;;;;5118809;28;20393;-65
2022/11/18 06:29:07;;;;;;;127.28;73.78;;;8.80;99.90;;;;;;5118752;28;20037;-65
2022/11/18 06:31:33;;;;;;;146.00;80.38;;;8.80;99.90;;;;;;5118792;28;20470;-65
2022/11/18 06:33:58;;;;;;;150.55;81.55;;;8.90;99.90;;;;;;5118597;28;20031;-65
2022/11/18 06:36:24;;;;;;;133.82;73.85;;;8.90;99.90;;;;;;5118689;28;20034;-65
2022/11/18 06:38:50;;;;;;;150.73;79.10;;;8.90;99.90;;;;;;5117071;28;20459;-65
2022/11/18 06:41:16;;;;;;;146.68;80.05;;;9.00;99.90;;;;;;5115892;28;20469;-65
2022/11/18 06:43:43;;;;;;;144.07;82.15;;;9.00;99.90;;;;;;5097870;28;20026;-65
2022/11/18 06:49:00;;;;;;;152.23;82.97;;;9.00;99.90;;;;;;5118295;28;20034;-65
2022/11/18 06:51:26;;;;;;;130.25;69.20;;;9.10;99.90;;;;;;5117995;28;20042;-65
2022/11/18 06:53:53;;;;;;;124.63;68.03;;;9.10;99.90;;;;;;5118150;28;20028;-65
2022/11/18 06:56:20;;;;;;;124.47;71.75;;;9.10;99.90;;;;;;5100072;28;20088;-65
2022/11/18 06:58:47;;;;;;;123.63;68.05;;;9.10;99.90;;;;;;5099414;28;20036;-65
2022/11/18 07:01:20;;;;;;;112.55;65.15;;;9.30;99.90;;;;;;5097748;28;20028;-65
2022/11/18 07:03:47;;;;;;;114.85;66.55;;;9.20;99.90;;;;;;5097544;28;20032;-65
2022/11/18 07:06:17;;;;;;;121.55;67.45;;;9.10;99.90;;;;;;5097688;28;20025;-65
2022/11/18 07:08:44;;;;;;;129.05;72.43;;;9.10;99.90;;;;;;5097610;28;20076;-65
2022/11/18 07:11:12;;;;;;;123.03;68.13;;;9.20;99.90;;;;;;5117883;28;20032;-65
2022/11/18 07:13:38;;;;;;;136.98;78.72;;;9.20;99.90;;;;;;5117898;28;20485;-65
2022/11/18 07:16:06;;;;;;;139.05;82.57;;;9.20;99.90;;;;;;5117616;28;20062;-65
2022/11/18 07:18:34;;;;;;;147.52;87.53;;;9.20;99.90;;;;;;5117531;28;20055;-65
2022/11/18 07:21:02;;;;;;;129.40;75.88;;;9.20;99.90;;;;;;5116993;28;20045;-65
2022/11/18 07:23:33;;;;;;;143.45;80.55;;;9.30;99.90;;;;;;5099225;28;20385;-65
2022/11/18 07:25:59;;;;;;;149.43;85.07;;;9.30;99.90;;;;;;5115125;28;20024;-65
2022/11/18 07:28:26;;;;;;;139.23;79.00;;;9.40;99.90;;;;;;5117672;28;20024;-65
2022/11/18 07:30:58;;;;;;;143.38;80.72;;;9.30;99.90;;;;;;5117285;28;20055;-65
2022/11/18 07:33:24;;;;;;;130.75;70.22;;;9.30;99.90;;;;;;5116103;28;20536;-65
2022/11/18 07:35:50;;;;;;;122.38;68.28;;;9.20;99.90;;;;;;5117411;28;20125;-65
2022/11/18 07:38:16;;;;;;;158.63;95.32;;;9.20;99.90;;;;;;5117967;28;20484;-65
2022/11/18 07:40:42;;;;;;;166.65;91.25;;;9.30;99.90;;;;;;5112376;28;20520;-65
2022/11/18 07:43:08;;;;;;;151.85;82.78;;;9.20;99.90;;;;;;5090397;28;20028;-64
2022/11/18 07:45:34;;;;;;;146.40;82.88;;;9.20;99.90;;;;;;5103593;28;20023;-65
2022/11/18 07:48:00;;;;;;;168.70;99.10;;;9.40;99.90;;;;;;5116528;28;20399;-65
2022/11/18 07:50:26;;;;;;;169.77;96.13;;;9.40;99.90;;;;;;5115570;28;20037;-65
2022/11/18 07:52:55;;;;;;;145.98;86.85;;;9.30;99.90;;;;;;5116639;28;20032;-65
2022/11/18 07:55:21;;;;;;;187.07;100.47;;;9.50;99.90;;;;;;5116791;28;20038;-65
2022/11/18 07:57:47;;;;;;;239.65;120.18;;;9.50;99.90;;;;;;5109129;28;20024;-65
2022/11/18 08:00:13;;;;;;;184.15;95.93;;;9.40;99.90;;;;;;5109438;28;20039;-65
2022/11/18 08:02:39;;;;;;;178.32;94.65;;;9.40;99.90;;;;;;5117604;28;20548;-65
2022/11/18 08:05:06;;;;;;;164.95;85.68;;;9.40;99.90;;;;;;5117763;28;20047;-65
2022/11/18 08:07:31;;;;;;;151.98;81.13;;;9.50;99.90;;;;;;5117589;28;20477;-65
2022/11/18 08:09:57;;;;;;;166.65;87.05;;;9.60;99.90;;;;;;5117387;28;20036;-65
2022/11/18 08:12:23;;;;;;;157.32;80.03;;;9.70;99.90;;;;;;5117581;28;20110;-65
2022/11/18 08:14:49;;;;;;;259.35;149.38;;;9.60;99.90;;;;;;5117460;28;20027;-64
2022/11/18 08:17:15;;;;;;;207.73;113.18;;;9.80;99.90;;;;;;5117425;28;20055;-65
2022/11/18 08:19:41;;;;;;;179.95;102.40;;;9.90;99.90;;;;;;5117223;28;20035;-65
2022/11/18 08:22:07;;;;;;;145.75;80.80;;;9.80;99.90;;;;;;5112897;28;20054;-65
2022/11/18 08:24:32;;;;;;;130.02;69.25;;;10.00;99.90;;;;;;5108678;28;20050;-64
2022/11/18 08:26:58;;;;;;;118.65;65.35;;;10.10;99.90;;;;;;5108436;28;20020;-65
2022/11/18 08:29:24;;;;;;;130.43;70.40;;;10.20;99.90;;;;;;5104858;28;20105;-64
2022/11/18 08:31:50;;;;;;;136.32;75.10;;;10.20;99.90;;;;;;5105132;28;20031;-65
2022/11/18 08:34:16;;;;;;;112.57;65.40;;;10.30;99.90;;;;;;5106881;28;20116;-65
2022/11/18 08:36:45;;;;;;;112.45;66.22;;;10.30;99.90;;;;;;5106559;28;20019;-65
2022/11/18 08:39:12;;;;;;;141.53;82.63;;;10.50;99.90;;;;;;5106529;28;20123;-65
2022/11/18 08:41:40;;;;;;;137.32;79.97;;;10.50;99.90;;;;;;5107234;28;20102;-65
2022/11/18 08:44:10;;;;;;;130.00;73.82;;;10.40;99.90;;;;;;5108551;28;20016;-65
2022/11/18 08:46:36;;;;;;;130.00;76.68;;;10.40;99.90;;;;;;5095228;28;20027;-65
2022/11/18 08:49:02;;;;;;;140.88;80.63;;;10.50;99.90;;;;;;5115636;28;20476;-65
2022/11/18 08:51:28;;;;;;;160.02;93.93;;;10.60;99.90;;;;;;5115887;28;20063;-65
2022/11/18 08:53:54;;;;;;;165.38;96.20;;;10.60;99.90;;;;;;5115882;28;20036;-65
2022/11/18 08:56:22;;;;;;;181.35;102.53;;;10.60;99.90;;;;;;5115785;28;20110;-65
2022/11/18 08:58:48;;;;;;;175.82;96.75;;;10.70;99.90;;;;;;5115589;28;20466;-65
2022/11/18 09:01:14;;;;;;;191.82;100.68;;;10.70;99.90;;;;;;5115301;28;20085;-65
2022/11/18 09:03:40;;;;;;;159.65;91.47;;;10.80;99.90;;;;;;5115612;28;20032;-65
2022/11/18 09:06:11;;;;;;;176.35;100.45;;;10.90;99.90;;;;;;5115724;28;20031;-65
2022/11/18 09:08:38;;;;;;;173.35;97.32;;;10.90;99.90;;;;;;5111121;28;20042;-65
2022/11/18 09:11:10;;;;;;;170.88;93.15;;;10.90;99.90;;;;;;5092303;28;20023;-65
2022/11/18 09:13:36;;;;;;;160.82;90.70;;;10.90;99.90;;;;;;5109597;28;20058;-65
2022/11/18 09:16:02;;;;;;;165.93;92.53;;;10.80;99.90;;;;;;5108694;28;20035;-65
2022/11/18 09:18:30;;;;;;;180.48;98.15;;;10.80;99.90;;;;;;5111725;28;20046;-65
2022/11/18 09:21:03;;;;;;;155.07;89.57;;;10.80;99.90;;;;;;5113151;28;20369;-65
2022/11/18 09:23:30;;;;;;;166.95;93.65;;;10.90;99.90;;;;;;5110533;28;20095;-65
2022/11/18 09:26:02;;;;;;;163.70;93.05;;;10.80;99.90;;;;;;5113435;28;20224;-65
2022/11/18 09:28:29;;;;;;;164.50;92.07;;;10.90;99.90;;;;;;5112563;28;20019;-65
2022/11/18 09:30:56;;;;;;;167.93;91.63;;;10.90;99.90;;;;;;5112420;28;20026;-65
2022/11/18 09:33:22;;;;;;;166.30;89.72;;;11.00;99.90;;;;;;5085909;28;20023;-65
2022/11/18 09:35:48;;;;;;;171.85;93.07;;;11.20;99.90;;;;;;5107236;28;20062;-65
2022/11/18 09:38:14;;;;;;;165.65;92.38;;;11.30;99.90;;;;;;5105716;28;20113;-65
2022/11/18 09:40:57;;;;;;;185.07;95.82;;;11.70;99.90;;;;;;5109752;28;20028;-65
2022/11/18 09:43:52;;;;;;;198.90;99.43;;;12.60;99.90;;;;;;5100819;28;20097;-65
2022/11/18 09:46:59;;;;;;;171.43;88.95;;;13.50;99.90;;;;;;5102879;28;20028;-65
2022/11/18 09:49:30;;;;;;;167.88;85.00;;;14.30;99.90;;;;;;5049034;28;20503;-66
2022/11/18 09:52:00;;;;;;;165.70;84.05;;;15.40;99.90;;;;;;5105546;28;20034;-66
2022/11/18 09:54:33;;;;;;;173.80;89.80;;;16.00;99.90;;;;;;5095410;28;20032;-66
2022/11/18 09:56:59;;;;;;;176.13;89.13;;;16.70;99.90;;;;;;5095425;28;20079;-66
2022/11/18 09:59:29;;;;;;;146.90;80.88;;;17.20;99.90;;;;;;5102484;28;20142;-66
2022/11/18 10:16:21;;;;;;;96.22;58.05;;;18.70;98.20;;;;;;5132825;27;20368;-64
2022/11/18 10:18:53;;;;;;;103.90;59.47;;;19.70;88.40;;;;;;5132496;27;20020;-64
2022/11/18 10:21:42;;;;;;;96.85;56.75;;;19.10;83.70;;;;;;5132161;28;20019;-64
2022/11/18 10:24:48;;;;;;;113.55;60.67;;;18.00;88.80;;;;;;5132480;27;20518;-64
2022/11/18 10:27:16;;;;;;;96.65;55.30;;;17.80;90.80;;;;;;5118618;27;20039;-64
2022/11/18 10:29:43;;;;;;;99.20;55.65;;;17.20;91.90;;;;;;5132523;27;20030;-64
2022/11/18 10:32:19;;;;;;;97.88;56.72;;;16.90;95.20;;;;;;5129456;28;20016;-64
2022/11/18 10:34:57;;;;;;;100.38;55.78;;;17.50;94.80;;;;;;5131984;27;20115;-64
2022/11/18 10:37:30;;;;;;;83.55;47.53;;;18.10;94.80;;;;;;5132285;27;20462;-64
2022/11/18 10:39:58;;;;;;;90.45;51.08;;;19.00;92.40;;;;;;5132116;28;20379;-64
2022/11/18 10:42:42;;;;;;;95.93;53.47;;;19.40;91.30;;;;;;5130768;28;20089;-64
2022/11/18 10:45:23;;;;;;;93.97;51.35;;;19.90;90.90;;;;;;5131837;28;20506;-64
2022/11/18 10:48:19;;;;;;;90.78;50.25;;;20.40;87.50;;;;;;5132061;27;20079;-64
2022/11/18 10:50:49;;;;;;;88.55;52.28;;;20.80;87.60;;;;;;5132067;28;20027;-64
2022/11/18 10:53:32;;;;;;;89.57;52.83;;;20.40;84.00;;;;;;5132041;28;20029;-64
2022/11/18 10:56:10;;;;;;;92.18;51.75;;;20.60;83.00;;;;;;5130684;28;20126;-64
2022/11/18 10:58:48;;;;;;;101.75;51.80;;;21.00;85.00;;;;;;5131900;28;20149;-64
2022/11/18 11:01:20;;;;;;;90.03;50.08;;;21.40;82.00;;;;;;5131769;27;20035;-64
2022/11/18 11:04:18;;;;;;;93.70;51.30;;;21.80;80.40;;;;;;5131492;28;20030;-64
2022/11/18 11:06:45;;;;;;;97.22;51.72;;;22.00;78.50;;;;;;5130295;28;20031;-64
2022/11/18 11:09:23;;;;;;;93.25;52.65;;;22.30;80.10;;;;;;5131460;27;20019;-64
2022/11/18 11:12:12;;;;;;;97.63;52.85;;;23.10;76.80;;;;;;5130321;28;20035;-64
2022/11/18 11:15:11;;;;;;;85.07;50.55;;;23.50;74.80;;;;;;5131522;27;20051;-65
2022/11/18 11:20:41;;;;;;;80.35;45.95;;;23.60;71.00;;;;;;5117431;28;20047;-65
2022/11/18 11:23:12;;;;;;;67.95;41.10;;;22.90;71.20;;;;;;5117675;28;20039;-65
2022/11/18 11:25:50;;;;;;;76.50;41.65;;;23.40;71.80;;;;;;5115143;28;20055;-65
2022/11/18 11:28:46;;;;;;;80.28;42.65;;;23.70;70.20;;;;;;5102883;28;20092;-65
2022/11/18 11:31:18;;;;;;;75.85;43.13;;;23.90;69.50;;;;;;5101270;28;20092;-65
2022/11/18 11:34:01;;;;;;;73.97;43.83;;;23.90;67.70;;;;;;5116414;28;20055;-65
2022/11/18 11:36:49;;;;;;;70.32;40.63;;;24.10;67.30;;;;;;5117437;28;20023;-65
2022/11/18 11:39:33;;;;;;;76.65;42.05;;;24.20;65.80;;;;;;5117289;28;20115;-65
2022/11/18 11:42:02;;;;;;;76.18;41.40;;;23.20;68.20;;;;;;5115866;28;20032;-65
2022/11/18 11:44:59;;;;;;;82.95;44.15;;;23.30;68.80;;;;;;5109777;28;20028;-65
2022/11/18 11:47:48;;;;;;;65.05;39.20;;;23.10;70.50;;;;;;5111778;28;20021;-65
2022/11/18 11:50:55;;;;;;;63.53;38.33;;;22.50;70.50;;;;;;5099139;28;20062;-65
2022/11/18 11:53:46;;;;;;;67.03;37.22;;;21.70;73.60;;;;;;5108140;28;20469;-65
2022/11/18 11:56:51;;;;;;;71.05;38.30;;;21.70;73.70;;;;;;5112298;28;20059;-65
2022/11/18 11:59:22;;;;;;;69.75;37.95;;;21.00;76.90;;;;;;5096578;28;20380;-65
2022/11/18 12:02:16;;;;;;;69.50;38.33;;;20.80;77.70;;;;;;5096674;28;20024;-65
2022/11/18 12:04:52;;;;;;;84.43;43.42;;;20.70;77.70;;;;;;5099662;28;20023;-65
2022/11/18 12:07:27;;;;;;;70.03;42.58;;;20.60;77.70;;;;;;5106269;28;20059;-66
2022/11/18 12:10:25;;;;;;;75.45;41.28;;;20.00;81.60;;;;;;5114711;28;20031;-66
2022/11/18 12:13:07;;;;;;;76.03;42.78;;;19.80;83.40;;;;;;5104139;28;20047;-65
2022/11/18 12:15:45;;;;;;;70.35;39.15;;;19.40;84.10;;;;;;5107779;28;20044;-66
2022/11/18 12:18:41;;;;;;;72.05;40.70;;;19.20;84.50;;;;;;5100003;28;20028;-66
2022/11/18 12:21:08;;;;;;;79.22;42.80;;;19.10;85.60;;;;;;5105675;28;20096;-65
2022/11/18 12:23:35;;;;;;;76.25;41.75;;;19.10;85.60;;;;;;5098395;28;20068;-65
2022/11/18 12:26:11;;;;;;;79.93;42.90;;;19.10;85.60;;;;;;5103717;28;20122;-65
2022/11/18 12:28:43;;;;;;;81.75;40.95;;;18.90;86.30;;;;;;5102543;28;20062;-65
2022/11/18 12:31:19;;;;;;;73.03;39.83;;;18.60;87.30;;;;;;5105184;28;20031;-65
2022/11/18 12:33:56;;;;;;;70.38;40.92;;;18.30;89.40;;;;;;5099012;28;20036;-65
2022/11/18 12:36:33;;;;;;;78.25;43.72;;;18.10;89.80;;;;;;5111617;28;20039;-65
2022/11/18 12:39:24;;;;;;;82.95;42.03;;;17.90;90.30;;;;;;5101517;28;20073;-65
2022/11/18 12:44:38;;;;;;;116.93;55.50;;;17.40;91.20;;;;;;5106502;28;19912;-65
2022/11/18 12:47:09;;;;;;;72.90;35.05;;;17.00;92.50;;;;;;5103782;28;20015;-65
2022/11/18 12:49:35;;;;;;;44.20;26.50;;;16.60;93.30;;;;;;5104650;28;20024;-65
2022/11/18 12:52:04;;;;;;;31.38;19.92;;;16.20;95.50;;;;;;5104749;28;20020;-64
2022/11/18 12:54:36;;;;;;;25.77;15.02;;;16.20;96.90;;;;;;5099961;28;20028;-65
2022/11/18 12:57:21;;;;;;;17.20;12.02;;;16.00;97.70;;;;;;5110220;28;20077;-65
2022/11/18 12:59:47;;;;;;;19.33;11.02;;;15.80;97.60;;;;;;5102557;28;20094;-65
2022/11/18 13:02:29;;;;;;;22.65;11.15;;;15.60;98.10;;;;;;5103330;28;20116;-65
2022/11/18 13:05:26;;;;;;;13.18;8.70;;;15.40;99.90;;;;;;5100249;28;20473;-65
2022/11/18 13:08:13;;;;;;;12.07;9.20;;;15.20;99.90;;;;;;5099283;28;20036;-64
2022/11/18 13:11:43;;;;;;;13.95;8.88;;;14.90;99.90;;;;;;5103000;28;20138;-64
2022/11/18 13:13:41;;;;;;;23.67;10.18;;;14.60;99.90;;;;;;5104333;28;20051;-64
2022/11/18 13:19:08;;;;;;;;;;;14.20;99.90;;;;;;5101722;28;20031;-64
2022/11/18 13:24:21;;;;;;;15.35;7.72;;;13.70;99.90;;;;;;5105259;28;20154;-64
2022/11/18 13:26:53;;;;;;;15.80;7.68;;;13.70;99.90;;;;;;5102294;28;20028;-64
2022/11/18 13:29:40;;;;;;;15.80;6.82;;;13.70;99.90;;;;;;5101501;28;20019;-64